Tropical Cyclones
[Index]
Main Index Home Page Stock Weather Photos Extreme Storms Discussion Storm News and Storm Chasing Reports Tropical Cyclones / Hurricanes / Typhoons Weather Data and Links Wild Fires / Bushfires Weather Observation Techniques Weather Picture Catalogue Tornado Pictures and Reports Stock Video Footage and DVDs for sale
Season 1971-1972 Tropical Cyclone HERMIONE Track Map
Season 1971-1972 Summaries: [BoM-AU] [JTWC-AU] [JTWC-SIO] [JTWC-SPAC] [JTWC-SH]
<<- Previous TC | JTWC 1971-1972 Season | Next TC ->>

click for intensity scale information  Lat/long Grid: Show Hide

 Date Labels: Show Hide

Joint Typhoon Warning Centre Cyclone Data

Name: HERMIONE
Number: 794 / 7223

29 Feb 1972 06:00 UTC to 11 Mar 1972 18:00 UTC

    date/time    lat    long     hPa   cat  kts
1972-02-29 06   15.2    74.8                              
1972-02-29 12   15.2    74.2                              
1972-02-29 18   15.2    73.5                              
1972-03-01 00   15.2    72.9                              
1972-03-01 06   15.2    72.0                              
1972-03-01 12   15.2    70.7                              
1972-03-01 18   15.1    69.4                              
1972-03-02 00   15.1    68.1                              
1972-03-02 06   15.2    66.9                              
1972-03-02 12   15.5    65.9                              
1972-03-02 18   16.0    64.9                              
1972-03-03 00   16.6    63.9                              
1972-03-03 06   17.1    62.8                              
1972-03-03 12   17.4    61.4                              
1972-03-03 18   17.5    59.9                              
1972-03-04 00   17.5    58.3                              
1972-03-04 06   17.5    56.9                              
1972-03-04 12   17.6    55.9                              
1972-03-04 18   17.7    54.9                              
1972-03-05 00   17.7    53.9                              
1972-03-05 06   17.5    52.9                              
1972-03-05 12   17.1    52.0                              
1972-03-05 18   16.6    51.3                              
1972-03-06 00   15.9    50.8                              
1972-03-06 06   15.2    50.2                              
1972-03-06 12   14.7    49.5                              
1972-03-06 18   14.6    48.7                              
1972-03-07 00   14.8    47.7                              
1972-03-07 06   15.0    46.9                              
1972-03-07 12   15.2    46.6                              
1972-03-07 18   15.5    46.4                              
1972-03-08 00   15.9    46.1                              
1972-03-08 06   16.3    45.7                              
1972-03-08 12   16.7    44.9                              
1972-03-08 18   17.1    44.0                              
1972-03-09 00   17.6    42.9                              
1972-03-09 06   18.0    42.0                              
1972-03-09 12   18.3    41.9                              
1972-03-09 18   18.5    42.0                              
1972-03-10 00   18.9    41.9                              
1972-03-10 06   19.2    41.8                              
1972-03-10 12   19.5    41.8                              
1972-03-10 18   19.8    41.8                              
1972-03-11 00   20.1    41.9                              
1972-03-11 06   20.5    41.9                              
1972-03-11 12   20.9    41.9                              
1972-03-11 18   21.4    41.9                              
Winds are 1-min average.

Tropical cyclone tracks developed by Michael Bath using data from the Joint Typhoon Warning Centre Best Tracks and Google Maps.


[Australian Severe Weather index] [Copyright Notice] [Email Contacts] [Search This Site] [Privacy Policy]
Document: tropical_cyclone_hermione.htm Updated: 18 September 2016